Strona główna
METAR-TAF:

METAR-TAF

Lotnisko :

Grant County Airport

Petersburg, Wirginia Zachodnia, Stany Zjednoczone

Szerokość geograficzna: 38-59N, Długość geograficzna: 079-08W, wysokość: 293 m

Aktualna obserwacja pogody

Raport powstał 33 minut temu, godzina 19:15 UTC
Wiatr 9 kt od południowo-południowy zachód
Temperatura 10°C
Wilgotność 37%
Ciśnienie 1025 hPa
Widzialność: 16.1 km
bezchmurnie

METAR: KW99 081915Z AUTO 20009KT 10SM CLR 10/M04 A3026 RMK AO2 T00991037

czas: 14:48 (19:48 UTC)


TAF: brakujący

Obserwacja i prognoza pogody dla ponad 4000 lotnisk (raport METAR i TAF).

Dostępne stacje oznaczono żółtymi i czerwonymi punktami na mapie.

Najedź kursorem aby zobaczyć nazwę stacji.

Kliknij aby zobaczyć obserwacje i prognozy pogody.

Aby zmienić mapę: kliknij na zielony przycisk z czarnym krzyżykiem, aby powiększyć; na zielony przycisk z myślnikiem, aby pomniejszyć; na zielone strzałki, aby przejść do map sąsiednich.


METAR-TAF: